Current Weather Conditions: station 44139

sailwx.info

Wind from 080 at 5 knots gusting 7

Wave height 1.9 meters (6 feet), 8 second period

Air temperature 4.6° C
Water temperature 4.2° C

Last reported at 2015-Apr-27 14:00 UTC.
Time now 2015-Apr-27 15:31 UTC

Location: N 44°12' W 057°06'.
View on Google Maps.

See reports from other nearby stations

  
Tides and Currents Weather Stations Pressure Air Temp Water Temp Dewpoint Dewpoint Depression Visibility Wind Speed Wind Dir Waves Ship Positions
date/time (UTC)wind fromknots sea level pressurealtimeterstation pressurevisibilityair tempwater tempwave heightnotes
2015-Apr-27 14:00 080 5 gusting 7 4.6 4.2 1.9
2015-Apr-27 13:00 080 3 gusting 5 4.5 4.1 1.9
2015-Apr-27 12:00 120 5 gusting 7 4.8 3.9 1.7
2015-Apr-27 11:00 130 7 gusting 9 4.6 3.9 1.8
2015-Apr-27 10:00 160 5 gusting 7 4.5 3.8 1.9
2015-Apr-27 09:00 180 7 gusting 7 4.4 3.8 1.8
2015-Apr-27 08:00 170 9 gusting 11 4.2 3.8 2.0
2015-Apr-27 07:00 190 9 gusting 11 4.3 3.8 2.0
2015-Apr-27 06:00 200 15 gusting 17 4.3 3.8 2.0
2015-Apr-27 05:00 210 15 gusting 17 4.3 3.8 2.1
2015-Apr-27 04:00 210 17 gusting 21 4.3 3.9 2.3
2015-Apr-27 03:00 220 17 gusting 19 4.2 3.9 2.3
2015-Apr-27 02:00 220 15 gusting 19 4.1 4.0 2.4
2015-Apr-27 01:00 230 19 gusting 23 4.0 4.0 2.6
2015-Apr-27 00:00 240 17 gusting 23 3.8 4.0 2.7
2015-Apr-26 23:00 250 19 gusting 25 3.7 4.0 2.8
2015-Apr-26 22:00 250 21 gusting 27 3.6 4.0 2.9
2015-Apr-26 21:00 260 21 gusting 27 3.5 4.0 2.9
2015-Apr-26 20:00 260 23 gusting 31 3.4 4.0 3.3
2015-Apr-26 18:00 270 25 gusting 31 2.8 4.0 2.9
2015-Apr-26 17:00 270 25 gusting 31 2.4 4.0 2.8
2015-Apr-26 16:00 280 23 gusting 27 2.4 4.0 2.9
2015-Apr-26 15:00 290 23 gusting 27 2.2 3.9 3.1
2015-Apr-26 14:00 300 23 gusting 29 2.2 3.9 3.2
2015-Apr-26 13:00 310 25 gusting 29 2.2 3.8 3.1
2015-Apr-26 12:00 300 23 gusting 29 2.4 3.7 3.1
2015-Apr-26 11:00 310 25 gusting 31 2.6 3.6 3.0
2015-Apr-26 10:00 320 27 gusting 31 2.5 3.5 3.1
2015-Apr-26 09:00 320 25 gusting 29 2.2 3.5 2.7
2015-Apr-26 08:00 320 27 gusting 33 1.8 3.4 2.6
2015-Apr-26 07:00 320 25 gusting 29 1.5 3.3 2.4
2015-Apr-26 06:00 330 23 gusting 29 1.2 3.3 2.2
2015-Apr-26 05:00 330 23 gusting 27 1.3 3.4 2.2
2015-Apr-26 04:00 340 21 gusting 27 1.5 3.3 1.9
2015-Apr-26 03:00 330 19 gusting 23 2.0 3.2 1.8
2015-Apr-26 02:00 340 19 gusting 23 1.9 3.3 1.7
2015-Apr-26 01:00 350 19 gusting 23 1.8 3.4 1.6
2015-Apr-26 00:00 330 17 gusting 19 1.9 3.5 1.6
2015-Apr-25 23:00 360 11 gusting 13 2.0 3.5 1.4
2015-Apr-25 22:00 340 11 gusting 15 2.6 3.6 1.4
2015-Apr-25 21:00 330 7 gusting 11 3.2 3.8 1.4
2015-Apr-25 20:00 360 7 gusting 9 3.4 4.2 1.5
2015-Apr-25 19:00 3.5 4.1 1.4
2015-Apr-25 18:00 330 1 gusting 3 3.5 3.7 1.5
2015-Apr-25 17:00 310 5 gusting 7 3.1 3.6 1.5
2015-Apr-25 16:00 310 5 gusting 7 2.9 3.4 1.6
2015-Apr-25 15:00 320 7 gusting 9 2.8 3.3 1.7